Time;durP1;ratioP1;P1;durP2;ratioP2;P2;SDS_P1;SDS_P2;PMS_P1;PMS_P2;Temp;Humidity;BMP_temperature;BMP_pressure;BME280_temperature;BME280_humidity;BME280_pressure;Samples;Min_cycle;Max_cycle;Signal;HPM_P1;HPM_P2
2023/02/12 00:01:23;;;;;;;27.05;12.20;;;4.50;99.90;;;;;;5002894;28;20052;-77
2023/02/12 00:03:51;;;;;;;28.48;14.07;;;4.40;99.90;;;;;;5017860;28;20063;-79
2023/02/12 00:06:18;;;;;;;27.95;13.70;;;4.40;99.90;;;;;;5014995;28;20171;-78
2023/02/12 00:08:49;;;;;;;24.40;10.88;;;4.40;99.90;;;;;;4999230;28;20059;-79
2023/02/12 00:11:20;;;;;;;28.23;15.43;;;4.40;99.90;;;;;;5007818;28;20834;-79
2023/02/12 00:13:47;;;;;;;27.65;13.50;;;4.30;99.90;;;;;;4997604;28;20713;-79
2023/02/12 00:16:17;;;;;;;24.10;11.32;;;4.20;99.90;;;;;;5013316;28;20060;-79
2023/02/12 00:18:45;;;;;;;22.00;10.93;;;4.20;99.90;;;;;;5000473;28;21919;-80
2023/02/12 00:21:16;;;;;;;26.02;10.40;;;4.20;99.90;;;;;;4995241;28;20078;-79
2023/02/12 00:23:43;;;;;;;25.08;12.70;;;4.10;99.90;;;;;;4991720;28;20060;-78
2023/02/12 00:26:13;;;;;;;25.42;11.30;;;4.20;99.90;;;;;;5011171;28;20049;-79
2023/02/12 00:28:45;;;;;;;27.75;11.60;;;4.20;99.90;;;;;;4997082;28;20040;-79
2023/02/12 00:31:19;;;;;;;30.33;15.85;;;4.20;99.90;;;;;;4981714;28;20092;-79
2023/02/12 00:33:47;;;;;;;26.42;14.18;;;4.20;99.90;;;;;;5007427;28;20716;-79
2023/02/12 00:36:18;;;;;;;30.33;15.48;;;4.20;99.90;;;;;;4995268;28;20044;-79
2023/02/12 00:38:45;;;;;;;27.98;15.63;;;4.20;99.90;;;;;;5009905;28;20048;-79
2023/02/12 00:41:13;;;;;;;24.05;11.95;;;4.30;99.90;;;;;;4998883;28;20802;-79
2023/02/12 00:43:40;;;;;;;29.77;15.95;;;4.30;99.90;;;;;;5006698;28;22146;-80
2023/02/12 00:46:07;;;;;;;27.67;13.30;;;4.30;99.90;;;;;;4990569;28;23780;-80
2023/02/12 00:48:37;;;;;;;24.60;10.30;;;4.30;99.90;;;;;;5008572;28;20041;-77
2023/02/12 00:51:05;;;;;;;25.05;11.40;;;4.20;99.90;;;;;;5022644;28;20052;-78
2023/02/12 00:53:33;;;;;;;25.88;12.45;;;4.10;99.90;;;;;;5012872;28;20231;-78
2023/02/12 00:56:00;;;;;;;21.65;9.70;;;4.20;99.90;;;;;;4990171;28;20178;-79
2023/02/12 00:58:28;;;;;;;29.20;14.13;;;4.10;99.90;;;;;;5012545;28;20052;-78
2023/02/12 01:00:55;;;;;;;23.35;10.73;;;4.20;99.90;;;;;;4997216;28;20053;-79
2023/02/12 01:03:23;;;;;;;21.30;8.65;;;4.10;99.90;;;;;;4998926;28;20402;-80
2023/02/12 01:05:52;;;;;;;23.70;10.35;;;4.00;99.90;;;;;;5012364;28;20752;-79
2023/02/12 01:08:21;;;;;;;26.25;10.60;;;4.00;99.90;;;;;;5017647;28;20048;-79
2023/02/12 01:10:58;;;;;;;25.27;10.77;;;4.00;99.90;;;;;;5026002;28;20073;-79
2023/02/12 01:13:25;;;;;;;28.15;10.40;;;3.90;99.90;;;;;;4990071;28;20139;-78
2023/02/12 01:16:14;;;;;;;22.65;9.35;;;3.90;99.90;;;;;;5010867;28;20147;-79
2023/02/12 01:18:41;;;;;;;28.27;12.07;;;3.90;99.90;;;;;;4995201;28;20148;-79
2023/02/12 01:21:15;;;;;;;24.42;11.10;;;3.90;99.90;;;;;;5007398;28;20053;-79
2023/02/12 01:23:44;;;;;;;28.70;12.65;;;3.90;99.90;;;;;;5014886;28;22295;-79
2023/02/12 01:26:15;;;;;;;26.77;12.45;;;4.00;99.90;;;;;;5007356;28;20062;-79
2023/02/12 01:28:47;;;;;;;27.95;13.95;;;4.00;99.90;;;;;;5033240;28;20423;-79
2023/02/12 01:31:18;;;;;;;33.20;14.50;;;4.00;99.90;;;;;;4998894;28;20773;-79
2023/02/12 01:33:50;;;;;;;30.52;13.70;;;4.00;99.90;;;;;;4998056;28;20048;-79
2023/02/12 01:36:18;;;;;;;32.53;14.32;;;4.10;99.90;;;;;;5011854;28;20199;-78
2023/02/12 01:38:47;;;;;;;30.77;16.50;;;3.90;99.90;;;;;;4997563;28;20630;-78
2023/02/12 01:41:20;;;;;;;28.92;13.10;;;3.90;99.90;;;;;;5014930;28;20063;-79
2023/02/12 01:44:10;;;;;;;27.23;11.55;;;3.90;99.90;;;;;;5004698;28;20053;-79
2023/02/12 01:46:38;;;;;;;26.48;12.40;;;3.90;99.90;;;;;;5015195;28;20040;-79
2023/02/12 01:49:32;;;;;;;35.35;13.05;;;3.90;99.90;;;;;;4995402;28;20083;-79
2023/02/12 01:52:29;;;;;;;28.73;12.13;;;3.80;99.90;;;;;;4988770;28;20048;-79
2023/02/12 01:55:00;;;;;;;19.50;9.38;;;3.70;99.90;;;;;;5008931;28;20045;-79
2023/02/12 01:57:30;;;;;;;22.88;9.85;;;3.60;99.90;;;;;;5001807;28;20387;-79
2023/02/12 02:00:00;;;;;;;28.33;11.45;;;3.50;99.90;;;;;;5040969;28;20060;-80
2023/02/12 02:02:29;;;;;;;24.02;11.13;;;3.30;99.90;;;;;;5013740;28;20800;-79
2023/02/12 02:05:01;;;;;;;28.02;12.45;;;3.20;99.90;;;;;;4991940;28;20083;-79
2023/02/12 02:07:29;;;;;;;26.80;11.85;;;3.10;99.90;;;;;;4987939;28;20534;-79
2023/02/12 02:09:57;;;;;;;29.98;13.07;;;3.00;99.90;;;;;;4990128;28;20253;-79
2023/02/12 02:15:16;;;;;;;33.05;14.05;;;2.90;99.90;;;;;;4999415;28;20040;-79
2023/02/12 02:18:01;;;;;;;33.15;13.57;;;2.80;99.90;;;;;;4993705;28;20529;-79
2023/02/12 02:20:43;;;;;;;35.65;13.57;;;2.90;99.90;;;;;;4994988;28;20731;-79
2023/02/12 02:23:56;;;;;;;37.20;15.60;;;2.80;99.90;;;;;;5011550;28;20177;-79
2023/02/12 02:26:51;;;;;;;35.35;13.32;;;2.80;99.90;;;;;;4973117;28;22830;-79
2023/02/12 02:29:45;;;;;;;33.90;14.40;;;2.80;99.90;;;;;;5015275;28;20057;-79
2023/02/12 02:32:15;;;;;;;37.70;13.90;;;2.90;99.90;;;;;;5011523;28;20772;-79
2023/02/12 02:34:56;;;;;;;36.45;16.73;;;2.90;99.90;;;;;;4994700;28;20148;-79
2023/02/12 02:37:30;;;;;;;29.73;11.77;;;2.90;99.90;;;;;;4997169;28;20052;-79
2023/02/12 02:40:18;;;;;;;31.67;14.25;;;2.90;99.90;;;;;;5027359;28;20155;-79
2023/02/12 02:42:53;;;;;;;30.05;13.38;;;2.90;99.90;;;;;;5011379;28;22320;-80
2023/02/12 02:45:32;;;;;;;30.23;12.13;;;3.00;99.90;;;;;;4996839;28;20728;-80
2023/02/12 02:48:12;;;;;;;34.70;13.63;;;2.90;99.90;;;;;;5012376;28;20088;-79
2023/02/12 02:50:45;;;;;;;26.05;11.57;;;2.90;99.90;;;;;;4992259;28;20052;-79
2023/02/12 02:53:23;;;;;;;26.77;11.93;;;2.90;99.90;;;;;;5008848;28;20045;-80
2023/02/12 02:55:53;;;;;;;28.52;12.32;;;2.80;99.90;;;;;;4991550;28;20691;-79
2023/02/12 02:58:38;;;;;;;36.25;13.25;;;2.90;99.90;;;;;;5026027;28;20431;-79
2023/02/12 03:01:17;;;;;;;33.20;14.05;;;2.90;99.90;;;;;;5014511;28;20184;-79
2023/02/12 03:04:08;;;;;;;31.77;13.73;;;2.80;99.90;;;;;;5009321;28;20059;-78
2023/02/12 03:06:45;;;;;;;34.60;13.48;;;2.70;99.90;;;;;;5015989;28;20056;-79
2023/02/12 03:09:26;;;;;;;31.38;13.68;;;2.60;99.90;;;;;;5013723;28;20312;-80
2023/02/12 03:12:04;;;;;;;46.30;18.52;;;2.70;99.90;;;;;;4967573;28;20178;-80
2023/02/12 03:14:37;;;;;;;30.75;11.60;;;2.70;99.90;;;;;;4991070;28;20056;-79
2023/02/12 03:17:31;;;;;;;27.73;10.60;;;2.70;99.90;;;;;;5026933;28;20427;-79
2023/02/12 03:20:03;;;;;;;27.08;10.80;;;2.60;99.90;;;;;;4991760;28;20060;-79
2023/02/12 03:22:35;;;;;;;62.15;22.58;;;2.60;99.90;;;;;;5011564;28;20149;-79
2023/02/12 03:25:13;;;;;;;65.93;23.88;;;2.50;99.90;;;;;;4996631;28;20047;-79
2023/02/12 03:27:53;;;;;;;73.55;28.75;;;2.50;99.90;;;;;;4985261;28;20060;-79
2023/02/12 03:30:21;;;;;;;56.15;20.63;;;2.50;99.90;;;;;;4990710;28;20045;-79
2023/02/12 03:33:01;;;;;;;34.67;12.90;;;2.50;99.90;;;;;;5011132;28;20498;-80
2023/02/12 03:35:40;;;;;;;29.70;11.88;;;2.40;99.90;;;;;;4999020;28;20122;-80
2023/02/12 03:38:33;;;;;;;29.45;11.75;;;2.40;99.90;;;;;;5006888;28;20032;-79
2023/02/12 03:41:23;;;;;;;26.30;11.63;;;2.30;99.90;;;;;;4987616;28;20072;-79
2023/02/12 03:43:55;;;;;;;29.80;9.98;;;2.20;99.90;;;;;;5009407;28;21237;-79
2023/02/12 03:46:47;;;;;;;27.65;11.23;;;2.20;99.90;;;;;;4999237;28;20707;-79
2023/02/12 03:49:33;;;;;;;27.88;11.23;;;2.10;99.90;;;;;;4997657;28;20750;-79
2023/02/12 03:52:01;;;;;;;26.00;10.55;;;2.00;99.90;;;;;;4982014;28;20045;-79
2023/02/12 03:54:29;;;;;;;25.33;10.73;;;2.00;99.90;;;;;;4996502;28;20051;-79
2023/02/12 03:57:01;;;;;;;29.38;11.73;;;1.90;99.90;;;;;;5028755;28;22152;-79
2023/02/12 03:59:29;;;;;;;32.58;13.93;;;1.90;99.90;;;;;;4989183;28;20052;-79
2023/02/12 04:01:58;;;;;;;38.40;14.27;;;1.80;99.90;;;;;;4970359;28;20055;-79
2023/02/12 04:04:26;;;;;;;33.95;12.55;;;1.80;99.90;;;;;;4992240;28;21115;-79
2023/02/12 04:06:53;;;;;;;35.78;13.90;;;1.80;99.90;;;;;;5026085;28;20853;-79
2023/02/12 04:09:23;;;;;;;34.38;13.73;;;1.70;99.90;;;;;;5000192;28;20048;-79
2023/02/12 04:12:20;;;;;;;31.40;12.93;;;1.70;99.90;;;;;;5013632;28;20055;-79
2023/02/12 04:15:08;;;;;;;34.10;12.23;;;1.70;99.90;;;;;;5011586;28;20048;-79
2023/02/12 04:17:48;;;;;;;33.88;11.55;;;1.60;99.90;;;;;;4989642;28;20044;-79
2023/02/12 04:20:43;;;;;;;36.33;15.07;;;1.60;99.90;;;;;;4997400;28;20127;-79
2023/02/12 04:23:13;;;;;;;38.17;14.65;;;1.50;99.90;;;;;;5010556;28;20055;-79
2023/02/12 04:25:52;;;;;;;41.08;15.93;;;1.50;99.90;;;;;;5028367;28;20048;-79
2023/02/12 04:28:29;;;;;;;37.85;16.15;;;1.40;99.90;;;;;;5022420;28;20190;-79
2023/02/12 04:31:02;;;;;;;36.90;13.57;;;1.40;99.90;;;;;;5008035;28;20812;-79
2023/02/12 04:33:41;;;;;;;31.92;12.75;;;1.40;99.90;;;;;;4987827;28;20653;-79
2023/02/12 04:36:15;;;;;;;31.70;12.43;;;1.40;99.90;;;;;;5007473;28;20059;-79
2023/02/12 04:39:00;;;;;;;31.85;13.50;;;1.40;99.90;;;;;;5010128;28;21313;-79
2023/02/12 04:41:29;;;;;;;31.48;12.18;;;1.30;99.90;;;;;;5020117;28;20514;-79
2023/02/12 04:43:56;;;;;;;32.60;12.10;;;1.30;99.90;;;;;;4992834;28;20932;-79
2023/02/12 04:46:23;;;;;;;32.15;13.27;;;1.20;99.90;;;;;;5010639;28;20044;-79
2023/02/12 04:48:56;;;;;;;34.90;12.50;;;1.20;99.90;;;;;;4993854;28;20547;-79
2023/02/12 04:51:27;;;;;;;36.08;13.40;;;1.10;99.90;;;;;;4992921;28;22178;-79
2023/02/12 04:53:54;;;;;;;34.42;12.60;;;1.10;99.90;;;;;;4973893;28;20049;-79
2023/02/12 04:56:21;;;;;;;35.63;12.98;;;1.10;99.90;;;;;;4990837;28;20080;-79
2023/02/12 04:58:49;;;;;;;38.05;13.85;;;1.00;99.90;;;;;;5003837;28;20053;-79
2023/02/12 05:01:16;;;;;;;32.15;12.43;;;1.00;99.90;;;;;;5006217;28;20048;-79
2023/02/12 05:03:43;;;;;;;31.95;13.00;;;1.00;99.90;;;;;;5007764;28;20056;-79
2023/02/12 05:06:10;;;;;;;29.33;11.77;;;1.00;99.90;;;;;;4989536;28;20519;-79
2023/02/12 05:08:37;;;;;;;31.73;12.38;;;0.90;99.90;;;;;;4993510;28;20402;-79
2023/02/12 05:11:09;;;;;;;38.95;14.73;;;0.90;99.90;;;;;;4989259;28;20047;-79
2023/02/12 05:13:37;;;;;;;39.58;14.77;;;0.90;99.90;;;;;;4994770;28;20048;-80
2023/02/12 05:16:06;;;;;;;36.83;12.82;;;0.80;99.90;;;;;;5020903;28;20047;-79
2023/02/12 05:18:34;;;;;;;34.60;13.88;;;0.80;99.90;;;;;;5007357;28;20048;-79
2023/02/12 05:21:03;;;;;;;33.78;13.85;;;0.80;99.90;;;;;;5023499;28;20414;-79
2023/02/12 05:23:33;;;;;;;34.95;12.75;;;0.80;99.90;;;;;;5007971;28;20101;-79
2023/02/12 05:26:03;;;;;;;33.75;11.98;;;0.70;99.90;;;;;;5009124;28;20530;-80
2023/02/12 05:28:30;;;;;;;33.65;12.15;;;0.70;99.90;;;;;;4978417;28;22538;-80
2023/02/12 05:31:04;;;;;;;34.45;12.40;;;0.70;99.90;;;;;;4996870;28;20699;-79
2023/02/12 05:33:31;;;;;;;37.80;12.50;;;0.70;99.90;;;;;;4981391;28;20049;-79
2023/02/12 05:36:10;;;;;;;32.58;13.23;;;0.70;99.90;;;;;;4978644;28;22356;-79
2023/02/12 05:38:38;;;;;;;28.60;11.52;;;0.70;99.90;;;;;;5010140;28;20048;-80
2023/02/12 05:41:11;;;;;;;39.08;14.30;;;0.60;99.90;;;;;;5015634;28;20476;-79
2023/02/12 05:43:40;;;;;;;34.13;12.80;;;0.60;99.90;;;;;;5030378;28;20126;-79
2023/02/12 05:46:08;;;;;;;35.83;12.45;;;0.50;99.90;;;;;;5015466;28;20475;-80
2023/02/12 05:48:36;;;;;;;35.85;12.52;;;0.30;99.90;;;;;;5009509;28;20040;-79
2023/02/12 05:51:12;;;;;;;35.92;13.00;;;0.50;99.90;;;;;;4984003;28;20060;-79
2023/02/12 05:53:40;;;;;;;45.38;15.75;;;0.50;99.90;;;;;;5000155;28;20048;-79
2023/02/12 05:56:16;;;;;;;40.10;14.18;;;0.50;99.90;;;;;;5033811;28;20742;-79
2023/02/12 05:58:46;;;;;;;33.70;13.48;;;0.50;99.90;;;;;;4972053;28;20568;-79
2023/02/12 06:01:20;;;;;;;40.55;15.57;;;0.40;99.90;;;;;;5028346;28;20053;-79
2023/02/12 06:03:47;;;;;;;45.05;15.80;;;0.40;99.90;;;;;;5026692;28;20700;-79
2023/02/12 06:06:14;;;;;;;53.95;19.27;;;0.40;99.90;;;;;;5025736;28;20770;-80
2023/02/12 06:08:41;;;;;;;46.22;17.60;;;0.40;99.90;;;;;;5001883;28;20084;-80
2023/02/12 06:11:12;;;;;;;49.13;18.10;;;0.40;99.90;;;;;;5009886;28;20075;-79
2023/02/12 06:13:40;;;;;;;43.42;16.60;;;0.40;99.90;;;;;;5028388;28;20070;-79
2023/02/12 06:16:19;;;;;;;51.60;18.67;;;0.40;99.90;;;;;;5007112;28;20052;-79
2023/02/12 06:18:47;;;;;;;55.38;19.45;;;0.40;99.90;;;;;;4993301;28;20044;-79
2023/02/12 06:21:16;;;;;;;51.67;19.88;;;0.40;99.90;;;;;;5000471;28;20086;-79
2023/02/12 06:23:43;;;;;;;57.17;20.60;;;0.40;99.90;;;;;;5007001;28;20052;-79
2023/02/12 06:26:13;;;;;;;54.70;20.85;;;0.40;99.90;;;;;;5007874;28;20048;-79
2023/02/12 06:28:40;;;;;;;57.97;21.65;;;0.40;99.90;;;;;;4995074;28;20044;-79
2023/02/12 06:31:26;;;;;;;52.97;21.65;;;0.40;99.90;;;;;;5025083;28;20045;-79
2023/02/12 06:33:55;;;;;;;56.92;22.55;;;0.40;99.90;;;;;;4978684;28;20063;-79
2023/02/12 06:36:23;;;;;;;56.67;20.60;;;0.40;99.90;;;;;;5005390;28;20260;-80
2023/02/12 06:38:50;;;;;;;56.22;20.85;;;0.40;99.90;;;;;;5035336;28;20067;-79
2023/02/12 06:41:18;;;;;;;48.53;17.17;;;0.50;99.90;;;;;;5028940;28;20090;-80
2023/02/12 06:43:45;;;;;;;38.67;15.77;;;0.50;99.90;;;;;;4992540;28;20053;-79
2023/02/12 06:46:13;;;;;;;42.25;16.73;;;0.50;99.90;;;;;;4994378;28;20415;-79
2023/02/12 06:48:40;;;;;;;48.00;19.65;;;0.60;99.90;;;;;;4991878;28;20070;-79
2023/02/12 06:51:14;;;;;;;46.20;18.95;;;0.60;99.90;;;;;;5012683;28;21409;-79
2023/02/12 06:53:42;;;;;;;50.65;19.67;;;0.70;99.90;;;;;;5015483;28;20036;-80
2023/02/12 06:56:11;;;;;;;47.13;17.70;;;0.70;99.90;;;;;;4993634;28;20418;-80
2023/02/12 06:58:41;;;;;;;54.60;19.55;;;0.80;99.90;;;;;;4995773;28;20788;-79
2023/02/12 07:01:17;;;;;;;59.58;22.15;;;0.80;99.90;;;;;;5006162;28;20534;-79
2023/02/12 07:03:57;;;;;;;46.15;19.95;;;0.90;99.90;;;;;;5013941;28;20067;-79
2023/02/12 07:06:25;;;;;;;57.72;22.35;;;1.00;99.90;;;;;;4971743;28;21401;-79
2023/02/12 07:08:54;;;;;;;53.08;20.33;;;1.00;99.90;;;;;;5017930;28;22193;-79
2023/02/12 07:11:30;;;;;;;52.33;21.33;;;1.00;99.90;;;;;;5001995;28;22217;-79
2023/02/12 07:13:58;;;;;;;60.72;22.95;;;1.10;99.90;;;;;;5006915;28;20048;-79
2023/02/12 07:16:26;;;;;;;73.45;26.98;;;1.20;99.90;;;;;;5011032;28;20137;-79
2023/02/12 07:18:53;;;;;;;56.17;21.92;;;1.30;99.90;;;;;;4998558;28;20260;-80
2023/02/12 07:21:20;;;;;;;52.72;21.85;;;1.30;99.90;;;;;;5015019;28;20143;-80
2023/02/12 07:23:50;;;;;;;51.70;21.45;;;1.40;99.90;;;;;;5030263;28;20042;-80
2023/02/12 07:26:19;;;;;;;54.85;21.98;;;1.50;99.90;;;;;;5013409;28;20053;-79
2023/02/12 07:28:47;;;;;;;51.67;21.58;;;1.50;99.90;;;;;;5014983;28;20063;-79
2023/02/12 07:31:18;;;;;;;53.75;19.13;;;1.60;99.90;;;;;;4983875;28;20055;-80
2023/02/12 07:33:46;;;;;;;49.35;20.02;;;1.70;99.90;;;;;;5024846;28;20056;-80
2023/02/12 07:36:18;;;;;;;54.40;19.67;;;1.70;99.90;;;;;;4996819;28;20056;-80
2023/02/12 07:38:45;;;;;;;51.17;18.85;;;1.90;99.90;;;;;;4995166;28;20040;-79
2023/02/12 07:41:20;;;;;;;63.13;22.20;;;1.90;99.90;;;;;;4994527;28;20076;-80
2023/02/12 07:43:52;;;;;;;49.72;18.85;;;2.00;99.90;;;;;;5005748;28;20059;-80
2023/02/12 07:46:28;;;;;;;53.85;21.52;;;2.10;99.90;;;;;;5013500;28;20549;-80
2023/02/12 07:48:57;;;;;;;56.92;19.90;;;2.20;99.90;;;;;;5016891;28;20052;-80
2023/02/12 07:51:26;;;;;;;54.15;21.02;;;2.30;99.90;;;;;;5017998;28;20064;-80
2023/02/12 07:53:53;;;;;;;50.00;19.20;;;2.40;99.90;;;;;;5000351;28;20060;-80
2023/02/12 07:56:29;;;;;;;53.60;20.98;;;2.50;99.90;;;;;;4989342;28;20090;-80
2023/02/12 07:58:59;;;;;;;79.28;26.23;;;2.60;99.90;;;;;;5006453;28;22306;-79
2023/02/12 08:01:32;;;;;;;48.47;18.60;;;2.70;99.90;;;;;;4990210;28;22156;-80
2023/02/12 08:04:08;;;;;;;38.17;16.48;;;2.80;99.90;;;;;;5004952;28;20098;-80
2023/02/12 08:06:37;;;;;;;47.05;18.95;;;2.80;99.90;;;;;;4995267;28;20222;-80
2023/02/12 08:09:08;;;;;;;44.00;21.05;;;2.90;99.90;;;;;;5030359;28;22531;-80
2023/02/12 08:11:37;;;;;;;38.42;18.05;;;3.00;99.90;;;;;;5023315;28;20097;-79
2023/02/12 08:14:04;;;;;;;43.47;16.90;;;3.10;99.90;;;;;;5006853;28;20784;-79
2023/02/12 08:16:35;;;;;;;44.83;18.10;;;3.20;99.90;;;;;;4995326;28;20064;-79
2023/02/12 08:19:03;;;;;;;46.33;16.73;;;3.20;99.90;;;;;;5004959;28;20120;-79
2023/02/12 08:21:46;;;;;;;38.92;15.43;;;3.40;99.90;;;;;;5036346;28;20052;-78
2023/02/12 08:24:13;;;;;;;38.10;16.02;;;3.40;99.90;;;;;;5026892;28;20059;-79
2023/02/12 08:26:40;;;;;;;38.17;16.38;;;3.40;99.90;;;;;;4999605;28;20074;-79
2023/02/12 08:29:11;;;;;;;42.25;16.90;;;3.50;99.90;;;;;;5002704;28;20155;-79
2023/02/12 08:31:41;;;;;;;37.88;13.93;;;3.60;99.90;;;;;;5027695;28;20174;-79
2023/02/12 08:34:33;;;;;;;39.75;14.68;;;3.60;99.90;;;;;;5017530;28;20053;-78
2023/02/12 08:37:03;;;;;;;38.83;15.70;;;3.70;99.90;;;;;;4992361;28;20632;-79
2023/02/12 08:39:30;;;;;;;40.28;17.98;;;3.80;99.90;;;;;;5004932;28;21217;-79
2023/02/12 08:41:58;;;;;;;41.08;17.38;;;3.90;99.90;;;;;;4988469;28;20052;-79
2023/02/12 08:44:26;;;;;;;40.00;16.52;;;4.00;99.90;;;;;;5008781;28;20055;-79
2023/02/12 08:46:54;;;;;;;40.92;15.85;;;4.10;99.90;;;;;;4994222;28;20053;-79
2023/02/12 08:49:24;;;;;;;37.75;15.50;;;4.20;99.90;;;;;;5030237;28;20109;-79
2023/02/12 08:51:54;;;;;;;38.88;15.25;;;4.20;99.90;;;;;;4985922;28;20044;-79
2023/02/12 08:54:24;;;;;;;37.92;16.13;;;4.30;99.90;;;;;;4991492;28;20036;-78
2023/02/12 08:56:55;;;;;;;40.25;15.57;;;4.30;99.90;;;;;;5012159;28;20055;-80
2023/02/12 08:59:23;;;;;;;35.05;14.57;;;4.40;99.90;;;;;;5010194;28;20052;-79
2023/02/12 09:01:51;;;;;;;37.63;15.48;;;4.50;99.90;;;;;;5001367;28;20055;-80
2023/02/12 09:04:21;;;;;;;37.47;15.23;;;4.50;99.90;;;;;;5003638;28;20049;-80
2023/02/12 09:06:49;;;;;;;39.15;16.23;;;4.60;99.90;;;;;;5012503;28;20597;-79
2023/02/12 09:09:16;;;;;;;35.75;15.32;;;4.70;99.90;;;;;;4998639;28;20052;-80
2023/02/12 09:11:44;;;;;;;38.15;16.00;;;4.70;99.90;;;;;;4995219;28;20045;-80
2023/02/12 09:14:14;;;;;;;37.95;16.52;;;4.80;99.90;;;;;;5025811;28;20052;-80
2023/02/12 09:16:42;;;;;;;39.17;14.68;;;4.90;99.90;;;;;;5002851;28;20049;-80
2023/02/12 09:19:13;;;;;;;34.05;15.38;;;4.90;99.90;;;;;;5033000;28;20734;-80
2023/02/12 09:21:41;;;;;;;34.88;16.10;;;5.00;99.90;;;;;;5005017;28;20520;-80
2023/02/12 09:24:08;;;;;;;40.58;16.48;;;5.10;99.90;;;;;;5001208;28;20534;-80
2023/02/12 09:26:36;;;;;;;42.25;16.73;;;5.20;99.90;;;;;;4982267;28;20109;-80
2023/02/12 09:29:03;;;;;;;37.67;16.25;;;5.30;99.90;;;;;;5008523;28;20040;-80
2023/02/12 09:31:32;;;;;;;37.05;17.27;;;5.30;99.90;;;;;;5018984;28;20750;-79
2023/02/12 09:34:02;;;;;;;40.92;18.75;;;5.40;99.90;;;;;;4994118;28;20049;-79
2023/02/12 09:36:30;;;;;;;34.50;13.95;;;5.50;99.90;;;;;;5039426;28;20423;-80
2023/02/12 09:38:58;;;;;;;35.72;15.77;;;5.60;99.90;;;;;;5018972;28;20044;-80
2023/02/12 09:41:50;;;;;;;35.38;14.68;;;5.60;99.90;;;;;;5038191;28;20049;-80
2023/02/12 09:44:32;;;;;;;37.03;16.80;;;5.70;99.90;;;;;;5020004;28;20045;-80
2023/02/12 09:47:11;;;;;;;33.67;15.45;;;5.80;99.90;;;;;;4987889;28;20379;-80
2023/02/12 09:49:50;;;;;;;32.83;14.35;;;5.80;99.90;;;;;;5000715;28;20415;-80
2023/02/12 09:52:25;;;;;;;32.10;14.00;;;5.90;99.90;;;;;;5013443;28;20059;-79
2023/02/12 09:54:53;;;;;;;35.55;15.68;;;5.90;99.90;;;;;;5017678;28;20719;-80
2023/02/12 09:57:41;;;;;;;33.83;13.88;;;5.90;99.90;;;;;;5003237;28;20285;-80
2023/02/12 10:00:30;;;;;;;33.38;14.52;;;5.90;99.90;;;;;;5012658;28;20122;-80
2023/02/12 10:03:02;;;;;;;33.63;16.10;;;5.90;99.90;;;;;;5022634;28;20140;-80
2023/02/12 10:05:38;;;;;;;31.95;16.52;;;6.00;99.90;;;;;;5021700;28;22666;-80
2023/02/12 10:08:33;;;;;;;35.38;14.77;;;6.10;99.90;;;;;;5020897;28;20464;-81
2023/02/12 10:11:15;;;;;;;26.92;13.30;;;6.20;99.90;;;;;;5003523;28;20048;-80
2023/02/12 10:13:45;;;;;;;30.77;14.60;;;6.30;99.90;;;;;;5015364;28;20052;-80
2023/02/12 10:16:31;;;;;;;30.10;14.15;;;6.40;99.90;;;;;;4994973;28;20036;-80
2023/02/12 10:19:07;;;;;;;30.45;13.55;;;6.60;99.90;;;;;;5013563;28;20060;-80
2023/02/12 10:21:53;;;;;;;29.92;13.63;;;6.70;99.90;;;;;;5012634;28;20530;-80
2023/02/12 10:24:26;;;;;;;57.88;23.73;;;6.70;99.90;;;;;;5033174;28;20059;-80
2023/02/12 10:26:57;;;;;;;31.55;13.15;;;6.80;99.90;;;;;;5029721;28;20059;-79
2023/02/12 10:29:30;;;;;;;31.83;12.68;;;6.90;99.90;;;;;;5006000;28;20796;-80
2023/02/12 10:32:05;;;;;;;28.85;13.48;;;7.00;99.90;;;;;;4997897;28;20071;-80
2023/02/12 10:34:35;;;;;;;31.95;15.25;;;7.00;99.90;;;;;;5029122;28;20055;-80
2023/02/12 10:37:27;;;;;;;41.85;22.17;;;7.00;99.90;;;;;;5009782;28;20461;-80
2023/02/12 10:40:00;;;;;;;31.95;14.35;;;7.00;99.90;;;;;;4995501;28;22276;-80
2023/02/12 10:42:43;;;;;;;28.50;14.48;;;7.20;99.90;;;;;;5023020;28;20056;-79
2023/02/12 10:45:21;;;;;;;25.67;12.85;;;7.20;99.60;;;;;;5009168;28;20767;-81
2023/02/12 10:47:52;;;;;;;28.27;13.20;;;7.30;99.90;;;;;;5004918;28;20496;-81
2023/02/12 10:50:51;;;;;;;31.05;14.68;;;7.30;99.90;;;;;;5007292;28;20551;-79
2023/02/12 10:53:36;;;;;;;28.67;13.95;;;7.40;99.50;;;;;;5014695;28;20053;-80
2023/02/12 10:56:16;;;;;;;26.20;12.88;;;7.60;98.40;;;;;;5024192;28;20557;-80
2023/02/12 10:58:50;;;;;;;26.00;13.30;;;7.70;97.50;;;;;;4976028;28;20052;-80
2023/02/12 11:01:30;;;;;;;25.92;12.10;;;7.60;97.40;;;;;;5012640;28;22413;-80
2023/02/12 11:03:59;;;;;;;30.67;15.45;;;7.50;97.40;;;;;;5002646;28;20253;-80
2023/02/12 11:06:31;;;;;;;33.40;15.60;;;7.50;97.60;;;;;;5014974;28;20157;-81
2023/02/12 11:08:59;;;;;;;29.08;14.18;;;7.50;98.20;;;;;;5015584;28;22386;-80
2023/02/12 11:11:36;;;;;;;24.02;11.52;;;7.50;97.60;;;;;;5020549;28;22037;-81
2023/02/12 11:14:19;;;;;;;25.15;11.20;;;7.60;97.20;;;;;;5001778;28;20059;-80
2023/02/12 11:16:58;;;;;;;20.95;11.07;;;7.60;96.70;;;;;;5004207;28;20055;-80
2023/02/12 11:19:31;;;;;;;24.70;10.88;;;7.70;96.00;;;;;;5015424;28;20510;-80
2023/02/12 11:22:17;;;;;;;21.05;10.20;;;7.70;95.90;;;;;;5006171;28;20048;-80
2023/02/12 11:24:46;;;;;;;22.48;9.98;;;7.90;95.10;;;;;;5021263;28;20457;-80
2023/02/12 11:27:23;;;;;;;21.52;10.65;;;8.00;95.50;;;;;;5032259;28;20103;-80
2023/02/12 11:30:09;;;;;;;26.90;12.80;;;8.10;95.40;;;;;;5006368;28;20048;-80
2023/02/12 11:32:39;;;;;;;22.73;11.27;;;8.20;95.20;;;;;;5012260;28;20103;-79
2023/02/12 11:35:29;;;;;;;25.20;11.33;;;8.10;94.80;;;;;;5015730;28;20519;-81
2023/02/12 11:38:01;;;;;;;24.30;10.82;;;8.10;95.40;;;;;;4988046;28;20073;-81
2023/02/12 11:40:32;;;;;;;24.90;10.63;;;8.00;94.90;;;;;;4990211;28;20535;-81
2023/02/12 11:43:04;;;;;;;19.45;9.20;;;8.10;95.30;;;;;;4981695;28;20153;-81
2023/02/12 11:45:46;;;;;;;21.08;11.48;;;8.00;94.60;;;;;;5002769;28;21986;-81
2023/02/12 11:48:37;;;;;;;48.33;19.85;;;8.10;95.00;;;;;;4997758;28;20045;-81
2023/02/12 11:51:08;;;;;;;24.63;10.50;;;8.20;94.20;;;;;;5001682;28;20873;-81
2023/02/12 11:53:40;;;;;;;20.08;9.65;;;8.20;93.90;;;;;;4987589;28;20124;-81
2023/02/12 11:56:11;;;;;;;22.40;10.35;;;8.20;94.20;;;;;;4997651;28;22543;-81
2023/02/12 11:58:39;;;;;;;23.38;10.57;;;8.50;94.00;;;;;;4982089;28;20048;-81
2023/02/12 12:01:25;;;;;;;21.60;8.57;;;8.70;93.50;;;;;;5003859;28;20041;-79
2023/02/12 12:04:04;;;;;;;18.98;8.95;;;8.60;92.90;;;;;;4981253;28;20143;-81
2023/02/12 12:06:53;;;;;;;16.50;8.27;;;8.50;92.80;;;;;;4986581;28;20049;-81
2023/02/12 12:09:28;;;;;;;20.10;9.32;;;8.60;93.00;;;;;;5011499;28;20048;-82
2023/02/12 12:12:03;;;;;;;18.00;8.13;;;8.70;92.30;;;;;;5030936;28;22661;-82
2023/02/12 12:14:34;;;;;;;17.52;8.07;;;8.70;92.20;;;;;;5003726;28;20421;-81
2023/02/12 12:20:36;;;;;;;17.20;8.13;;;8.80;92.00;;;;;;5024354;28;20057;-81
2023/02/12 12:23:19;;;;;;;14.55;6.70;;;8.70;91.10;;;;;;4983764;28;20274;-80
2023/02/12 12:26:03;;;;;;;19.80;8.82;;;8.70;91.20;;;;;;5036349;28;20074;-81
2023/02/12 12:28:49;;;;;;;20.90;8.65;;;9.00;91.70;;;;;;4995488;28;20649;-81
2023/02/12 12:31:41;;;;;;;25.27;11.52;;;9.10;91.40;;;;;;5033627;28;20066;-81
2023/02/12 12:34:16;;;;;;;33.85;15.32;;;9.20;91.40;;;;;;5022537;28;22350;-82
2023/02/12 12:37:17;;;;;;;29.55;14.98;;;9.10;91.10;;;;;;4997553;28;20229;-80
2023/02/12 12:40:12;;;;;;;27.95;11.93;;;9.00;90.60;;;;;;5013323;28;20463;-79
2023/02/12 12:43:12;;;;;;;30.58;15.55;;;8.30;91.10;;;;;;5012894;28;20061;-82
2023/02/12 12:46:23;;;;;;;35.90;15.93;;;8.70;91.30;;;;;;4966336;28;20069;-82
2023/02/12 12:49:38;;;;;;;32.03;15.63;;;8.60;91.80;;;;;;4932506;28;20129;-82
2023/02/12 12:52:23;;;;;;;41.60;17.92;;;8.50;91.70;;;;;;4919302;28;20051;-82
2023/02/12 12:55:18;;;;;;;38.03;14.85;;;8.40;92.00;;;;;;4932677;28;20236;-80
2023/02/12 12:58:30;;;;;;;42.33;19.02;;;8.40;91.90;;;;;;4920766;28;20095;-82
2023/02/12 13:01:26;;;;;;;38.03;16.20;;;8.40;91.80;;;;;;4952817;28;20053;-82
2023/02/12 13:04:26;;;;;;;37.17;18.42;;;8.30;91.80;;;;;;4941509;28;20055;-81
2023/02/12 13:07:41;;;;;;;38.75;17.13;;;8.30;92.10;;;;;;4981879;28;20121;-81
2023/02/12 13:10:48;;;;;;;33.20;15.00;;;8.20;92.10;;;;;;4917870;28;20552;-81
2023/02/12 13:13:28;;;;;;;39.65;17.50;;;8.10;92.10;;;;;;4936811;28;20823;-82
2023/02/12 13:16:14;;;;;;;39.97;16.77;;;8.00;92.40;;;;;;4961398;28;20054;-80
2023/02/12 13:18:58;;;;;;;39.30;17.50;;;8.00;92.20;;;;;;4995333;28;20137;-81
2023/02/12 13:21:36;;;;;;;36.63;16.90;;;7.90;92.20;;;;;;4992041;28;20515;-80
2023/02/12 13:24:31;;;;;;;36.53;14.73;;;7.90;92.40;;;;;;5022075;28;20033;-82